createdAt,value
2023-01-29T01:21:10.998Z,-3.61
2023-01-29T01:23:41.920Z,-3.07
2023-01-29T01:26:12.734Z,-1.79
2023-01-29T01:28:43.176Z,-1.63
2023-01-29T01:31:14.599Z,-1.96
2023-01-29T01:33:45.368Z,-1.43
2023-01-29T01:36:17.341Z,-1.43
2023-01-29T01:38:46.753Z,-1.83
2023-01-29T01:41:18.534Z,-1.68
2023-01-29T01:43:52.897Z,-2.02
2023-01-29T01:46:23.526Z,-1.92
2023-01-29T01:48:58.485Z,-1.50
2023-01-29T01:51:32.195Z,-1.91
2023-01-29T01:54:04.473Z,-1.35
2023-01-29T01:56:41.004Z,-2.27
2023-01-29T01:59:15.994Z,-1.96
2023-01-29T02:01:51.506Z,-1.68
2023-01-29T02:04:42.306Z,-1.54
2023-01-29T02:07:34.444Z,-1.74
2023-01-29T02:10:11.015Z,-2.35
2023-01-29T02:12:40.676Z,-1.26
2023-01-29T02:15:11.657Z,-1.65
2023-01-29T02:17:42.014Z,-1.30
2023-01-29T02:20:19.718Z,-1.68
2023-01-29T02:23:09.187Z,-1.35
2023-01-29T02:26:20.276Z,-1.31
2023-01-29T02:28:56.249Z,-1.27
2023-01-29T02:31:36.849Z,-1.51
2023-01-29T02:34:18.529Z,-1.12
2023-01-29T02:36:54.621Z,-1.54
2023-01-29T02:39:33.141Z,-1.46
2023-01-29T02:42:11.760Z,-1.81
2023-01-29T02:44:49.119Z,-1.22
2023-01-29T02:47:23.615Z,-1.16
2023-01-29T02:50:00.245Z,-2.42
2023-01-29T02:52:39.381Z,-1.41
2023-01-29T02:55:14.074Z,-2.43
2023-01-29T02:57:48.263Z,-2.21
2023-01-29T03:00:22.801Z,-1.44
2023-01-29T03:03:00.044Z,-2.40
2023-01-29T03:05:36.497Z,-1.21
2023-01-29T03:08:10.652Z,-1.49
2023-01-29T03:10:45.429Z,-1.46
2023-01-29T03:13:19.878Z,-2.15
2023-01-29T03:16:01.553Z,-3.18
2023-01-29T03:18:46.041Z,-2.21
2023-01-29T03:21:39.332Z,-1.25
2023-01-29T03:24:30.483Z,-2.10
2023-01-29T03:27:22.583Z,-1.10
2023-01-29T03:30:13.656Z,-2.31
2023-01-29T03:33:19.732Z,-2.10
2023-01-29T03:35:58.733Z,-1.39
2023-01-29T03:38:32.307Z,-1.65
2023-01-29T03:41:10.701Z,-1.03
2023-01-29T03:43:49.676Z,-1.27
2023-01-29T03:46:29.256Z,-1.95
2023-01-29T03:49:08.727Z,-1.16
2023-01-29T03:51:44.286Z,-2.11
2023-01-29T03:54:21.872Z,-1.25
2023-01-29T03:57:01.561Z,-1.18
2023-01-29T03:59:41.213Z,-2.36
2023-01-29T04:02:37.174Z,-2.02
2023-01-29T04:05:20.562Z,-1.53
2023-01-29T04:08:13.683Z,-1.15
2023-01-29T04:10:46.952Z,-1.00
2023-01-29T04:13:20.349Z,-0.83
2023-01-29T04:15:57.602Z,-0.75
2023-01-29T04:18:48.003Z,-1.80
2023-01-29T04:21:20.509Z,-1.42
2023-01-29T04:23:50.776Z,-0.75
2023-01-29T04:26:30.359Z,-3.35
2023-01-29T04:29:30.265Z,-3.68
2023-01-29T04:32:12.461Z,-4.20
2023-01-29T04:34:58.598Z,-3.18
2023-01-29T04:37:38.243Z,-1.44
2023-01-29T04:40:27.150Z,-3.55
2023-01-29T04:43:09.459Z,-3.42
2023-01-29T04:45:57.095Z,-1.88
2023-01-29T04:48:41.031Z,-1.73
2023-01-29T04:51:23.562Z,-2.69
2023-01-29T04:54:08.702Z,-0.75
2023-01-29T04:56:45.542Z,-1.93
2023-01-29T04:59:21.923Z,-1.42
2023-01-29T05:01:53.413Z,-1.33
2023-01-29T05:04:25.524Z,-1.14
2023-01-29T05:06:58.515Z,-0.60
2023-01-29T05:09:29.959Z,-0.75
2023-01-29T05:12:00.743Z,-2.58
2023-01-29T05:14:32.193Z,-1.46
2023-01-29T05:17:09.387Z,-1.01
2023-01-29T05:19:39.241Z,-1.00
2023-01-29T05:22:12.958Z,-1.38
2023-01-29T05:24:44.642Z,-1.30
2023-01-29T05:27:36.571Z,-1.44
2023-01-29T05:30:07.584Z,-1.80
2023-01-29T05:32:37.075Z,-1.32
2023-01-29T05:35:07.400Z,-1.54
2023-01-29T05:37:38.075Z,-1.58
2023-01-29T05:40:11.573Z,-0.81
2023-01-29T05:42:41.631Z,-2.31
2023-01-29T05:45:12.079Z,-1.67
2023-01-29T05:47:41.894Z,-2.33
2023-01-29T05:50:12.555Z,-1.48
2023-01-29T05:52:50.010Z,-1.77
2023-01-29T05:55:24.242Z,-1.38
2023-01-29T05:57:53.822Z,-1.65
2023-01-29T06:00:24.531Z,-1.62
2023-01-29T06:02:54.024Z,-1.13
2023-01-29T06:05:24.008Z,-1.10
2023-01-29T06:07:53.761Z,-1.41
2023-01-29T06:10:25.200Z,-1.29
2023-01-29T06:12:54.977Z,-1.32
2023-01-29T06:15:26.615Z,-2.62
2023-01-29T06:17:56.785Z,-0.99
2023-01-29T06:20:27.006Z,-1.44
2023-01-29T06:22:57.040Z,-1.58
2023-01-29T06:25:28.054Z,-2.56
2023-01-29T06:27:59.477Z,-1.10
2023-01-29T06:30:29.599Z,-2.27
2023-01-29T06:33:01.700Z,-1.55
2023-01-29T06:35:32.404Z,-1.63
2023-01-29T06:38:02.885Z,-1.63
2023-01-29T06:40:34.296Z,-2.64
2023-01-29T06:43:03.747Z,-2.08
2023-01-29T06:45:33.641Z,-0.68
2023-01-29T06:48:03.898Z,-1.70
2023-01-29T06:50:34.613Z,-0.27
2023-01-29T06:53:05.996Z,-0.46
2023-01-29T06:55:37.859Z,-0.12
2023-01-29T06:58:11.006Z,-2.71
2023-01-29T07:00:41.578Z,-1.08
2023-01-29T07:03:12.108Z,-2.26
2023-01-29T07:05:43.042Z,-1.69
2023-01-29T07:08:13.292Z,-0.48
2023-01-29T07:10:47.323Z,-1.12
2023-01-29T07:13:18.545Z,-0.34
2023-01-29T07:15:49.765Z,-0.71
2023-01-29T07:18:23.847Z,-1.88
2023-01-29T07:20:56.544Z,0.35
2023-01-29T07:23:52.978Z,-2.38
2023-01-29T07:26:49.066Z,-1.31
2023-01-29T07:29:24.326Z,-0.82
2023-01-29T07:31:57.404Z,-2.23
2023-01-29T07:34:27.494Z,-0.01
2023-01-29T07:36:57.620Z,-1.37
2023-01-29T07:39:27.856Z,-1.33
2023-01-29T07:41:59.138Z,-0.70
2023-01-29T07:44:31.770Z,-0.12
2023-01-29T07:47:01.585Z,-0.08
2023-01-29T07:49:31.524Z,-1.44
2023-01-29T07:52:01.552Z,-2.07
2023-01-29T07:54:32.832Z,-2.02
2023-01-29T07:57:03.932Z,-1.27
2023-01-29T07:59:34.833Z,-2.09
2023-01-29T08:02:05.956Z,-0.30
2023-01-29T08:04:36.832Z,-1.71
2023-01-29T08:07:07.126Z,-0.11
2023-01-29T08:09:39.465Z,-1.31
2023-01-29T08:12:10.573Z,0.32
2023-01-29T08:14:41.744Z,-0.13
2023-01-29T08:17:14.888Z,0.57
2023-01-29T08:19:48.004Z,-0.11
2023-01-29T08:22:20.824Z,0.34
2023-01-29T08:25:00.143Z,1.02
2023-01-29T08:27:38.883Z,1.79
2023-01-29T08:30:14.926Z,-0.39
2023-01-29T08:32:45.814Z,0.88
2023-01-29T08:35:19.380Z,2.25
2023-01-29T08:37:58.815Z,-0.68
2023-01-29T08:40:31.995Z,1.42
2023-01-29T08:43:11.387Z,1.65
2023-01-29T08:45:45.547Z,0.50
2023-01-29T08:48:17.031Z,0.84
2023-01-29T08:50:47.992Z,2.14
2023-01-29T10:13:48.816Z,3.35
2023-01-29T10:16:33.776Z,2.09
2023-01-29T10:19:14.113Z,2.87
2023-01-29T10:22:04.504Z,2.49
2023-01-29T10:24:49.252Z,2.44
2023-01-29T10:27:21.806Z,2.69
2023-01-29T10:29:55.663Z,2.55
2023-01-29T10:32:30.353Z,2.39
2023-01-29T10:35:06.529Z,2.85
2023-01-29T10:37:42.048Z,2.73
2023-01-29T10:40:21.734Z,3.04
2023-01-29T10:43:00.545Z,3.32
2023-01-29T10:45:40.627Z,3.61
2023-01-29T10:48:59.514Z,3.16
2023-01-29T10:51:53.077Z,2.92
2023-01-29T10:54:37.592Z,2.71
2023-01-29T10:57:16.349Z,3.18
2023-01-29T11:00:04.618Z,3.61
2023-01-29T11:02:36.229Z,1.08
2023-01-29T11:05:11.404Z,2.33
2023-01-29T11:07:40.871Z,3.56
2023-01-29T11:10:15.907Z,3.88
2023-01-29T11:12:49.351Z,2.57
2023-01-29T11:15:25.166Z,3.15
2023-01-29T11:18:10.579Z,3.22
2023-01-29T11:20:39.881Z,2.93
2023-01-29T11:23:27.551Z,2.87
2023-01-29T11:25:58.957Z,3.62
2023-01-29T11:28:39.525Z,3.14
2023-01-29T11:31:22.426Z,3.48
2023-01-29T11:34:05.364Z,3.54
2023-01-29T11:36:38.397Z,3.73
2023-01-29T11:39:19.428Z,3.77
2023-01-29T11:41:56.706Z,3.12
2023-01-29T11:44:37.118Z,3.17
2023-01-29T11:47:18.525Z,3.53
2023-01-29T11:49:53.909Z,2.86
2023-01-29T11:52:26.478Z,3.38
2023-01-29T11:55:02.468Z,3.23
2023-01-29T11:57:35.178Z,3.64
2023-01-29T12:00:09.980Z,3.81
2023-01-29T12:02:47.003Z,3.96
2023-01-29T12:05:21.643Z,3.69
2023-01-29T12:07:56.479Z,3.13
2023-01-29T12:10:39.460Z,2.77
2023-01-29T12:13:26.786Z,3.41
2023-01-29T12:16:14.770Z,3.53
2023-01-29T12:18:48.722Z,3.67
2023-01-29T12:21:22.105Z,3.72
2023-01-29T12:23:59.523Z,3.14
2023-01-29T12:26:36.611Z,3.24
2023-01-29T12:29:26.791Z,3.55
2023-01-29T12:32:10.860Z,3.68
2023-01-29T12:34:46.624Z,3.38
2023-01-29T12:37:23.970Z,2.69
2023-01-29T12:39:54.402Z,3.34
2023-01-29T12:42:25.948Z,3.29
2023-01-29T12:45:00.647Z,1.49
2023-01-29T12:47:34.847Z,0.91
2023-01-29T12:50:18.782Z,2.54
2023-01-29T12:52:53.232Z,3.41
2023-01-29T12:55:31.725Z,3.05
2023-01-29T12:58:04.247Z,2.93
2023-01-29T13:00:36.497Z,2.98
2023-01-29T13:03:16.342Z,3.37
2023-01-29T13:06:08.699Z,2.45
2023-01-29T13:08:50.340Z,1.77
2023-01-29T13:11:23.578Z,2.95
2023-01-29T13:13:58.012Z,1.04
2023-01-29T13:16:33.535Z,2.90
2023-01-29T13:19:07.202Z,3.34
2023-01-29T13:21:40.903Z,3.09
2023-01-29T13:24:17.386Z,3.45
2023-01-29T13:26:47.564Z,3.45
2023-01-29T13:29:24.669Z,3.39
2023-01-29T13:31:55.393Z,3.25
2023-01-29T13:34:28.464Z,3.25
2023-01-29T13:37:00.653Z,2.96
2023-01-29T13:39:34.461Z,2.99
2023-01-29T13:42:05.048Z,3.22
2023-01-29T13:44:37.518Z,2.92
2023-01-29T13:47:09.324Z,2.60
2023-01-29T13:52:54.366Z,2.95
2023-01-29T13:55:34.419Z,3.08
2023-01-29T13:58:19.065Z,3.15
2023-01-29T14:00:54.897Z,3.19
2023-01-29T14:04:05.523Z,2.87
2023-01-29T14:06:52.578Z,2.86
2023-01-29T14:10:02.538Z,0.51
2023-01-29T14:12:44.578Z,-0.43
2023-01-29T14:15:23.050Z,0.14
2023-01-29T14:18:25.791Z,0.32
2023-01-29T14:21:02.319Z,2.01
2023-01-29T14:23:40.516Z,2.56
2023-01-29T14:26:28.658Z,2.04
2023-01-29T14:29:06.554Z,2.47
2023-01-29T14:31:43.501Z,2.70
2023-01-29T14:34:21.662Z,2.55
2023-01-29T14:36:55.661Z,2.44
2023-01-29T14:39:36.998Z,2.28
2023-01-29T14:42:19.272Z,2.59
2023-01-29T14:45:00.290Z,2.88
2023-01-29T14:47:56.415Z,2.44
2023-01-29T14:50:47.595Z,2.37
2023-01-29T14:53:23.175Z,1.67
2023-01-29T14:55:57.599Z,2.26
2023-01-29T14:58:35.987Z,2.40
2023-01-29T15:01:24.094Z,2.56
2023-01-29T15:03:57.920Z,2.36
2023-01-29T15:06:30.384Z,2.32
2023-01-29T15:09:15.051Z,2.14
2023-01-29T15:11:52.973Z,2.01
2023-01-29T15:14:34.898Z,2.12
2023-01-29T15:17:18.741Z,2.05
2023-01-29T15:19:49.995Z,2.43
2023-01-29T15:22:21.479Z,2.25
2023-01-29T15:25:07.571Z,2.31
2023-01-29T15:27:47.168Z,2.16
2023-01-29T15:30:19.765Z,2.38
2023-01-29T15:32:51.582Z,1.02
2023-01-29T15:35:32.840Z,-0.49
2023-01-29T15:38:07.927Z,-0.08
2023-01-29T15:40:37.707Z,-1.35
2023-01-29T15:43:23.720Z,0.03
2023-01-29T15:45:55.201Z,0.24
2023-01-29T15:48:32.986Z,-0.59
2023-01-29T15:51:05.306Z,0.58
2023-01-29T16:06:12.555Z,1.13
2023-01-29T18:10:01.840Z,1.16
2023-01-29T18:12:36.109Z,1.62
2023-01-29T18:15:08.562Z,2.18
2023-01-29T18:17:38.587Z,1.84
2023-01-29T18:20:21.510Z,1.89
2023-01-29T18:23:11.734Z,1.49
2023-01-29T18:25:45.447Z,1.41
2023-01-29T18:28:26.404Z,0.87
2023-01-29T18:31:02.667Z,1.18
2023-01-29T18:33:37.294Z,0.53
2023-01-29T18:36:12.007Z,1.03
2023-01-29T18:38:45.092Z,1.51
2023-01-29T18:41:19.945Z,1.70
2023-01-29T18:43:52.956Z,0.91
2023-01-29T18:46:46.674Z,2.12
2023-01-29T18:49:19.379Z,1.60
2023-01-29T18:51:49.822Z,1.22
2023-01-29T18:54:27.576Z,1.53
2023-01-29T18:57:08.568Z,1.66
2023-01-29T18:59:58.471Z,1.34
2023-01-29T19:02:59.967Z,0.90
2023-01-29T19:05:37.725Z,1.43
2023-01-29T19:08:15.411Z,0.98
2023-01-29T19:11:35.089Z,0.12
2023-01-29T19:14:11.353Z,0.99
2023-01-29T19:16:47.126Z,0.11
2023-01-29T19:19:18.837Z,1.36
2023-01-29T19:22:10.711Z,0.23
2023-01-29T19:24:41.346Z,0.20
2023-01-29T19:27:34.597Z,1.20
2023-01-29T19:33:45.753Z,0.84
2023-01-29T19:36:15.839Z,1.25
2023-01-29T19:38:49.811Z,1.39
2023-01-29T19:41:26.391Z,-0.14
2023-01-29T19:44:16.095Z,0.59
2023-01-29T19:46:50.869Z,0.92
2023-01-29T19:49:24.305Z,1.83
2023-01-29T19:51:59.195Z,1.77
2023-01-29T19:54:29.937Z,1.61
2023-01-29T19:57:02.901Z,1.59
2023-01-29T19:59:40.635Z,1.32
2023-01-29T20:02:16.307Z,1.86
2023-01-29T20:04:47.824Z,1.29
2023-01-29T20:07:24.330Z,1.20
2023-01-29T20:09:54.381Z,1.95
2023-01-29T20:12:28.599Z,1.49
2023-01-29T20:15:12.257Z,1.27
2023-01-29T20:17:46.891Z,1.57
2023-01-29T20:20:19.341Z,1.36
2023-01-29T20:22:55.222Z,1.00
2023-01-29T20:25:36.648Z,2.08
2023-01-29T20:28:09.110Z,1.16
2023-01-29T20:30:41.387Z,1.18
2023-01-29T20:33:45.102Z,0.52
2023-01-29T20:36:25.065Z,0.81
2023-01-29T20:38:58.155Z,1.78
2023-01-29T20:41:34.662Z,1.23
2023-01-29T20:44:14.448Z,1.02
2023-01-29T20:46:47.096Z,1.97
2023-01-29T20:49:34.420Z,1.88
2023-01-29T20:52:22.241Z,0.29
2023-01-29T20:55:34.129Z,1.78
2023-01-29T20:58:22.344Z,0.73
2023-01-29T21:01:09.018Z,0.93
2023-01-29T21:03:44.703Z,0.72
2023-01-29T21:06:23.122Z,1.26
2023-01-29T21:08:53.686Z,1.66
2023-01-29T21:11:44.202Z,1.63
2023-01-29T21:14:22.722Z,1.02
2023-01-29T21:16:58.544Z,1.18
2023-01-29T21:19:32.120Z,1.50
2023-01-29T21:22:05.154Z,0.98
2023-01-29T21:24:37.273Z,1.59
2023-01-29T21:27:09.251Z,1.24
2023-01-29T21:29:39.093Z,1.46
2023-01-29T21:32:14.085Z,1.04
2023-01-29T21:34:45.917Z,0.87
2023-01-29T21:37:17.488Z,1.06
2023-01-29T21:39:49.111Z,1.49
2023-01-29T21:42:40.877Z,1.52
2023-01-29T21:45:19.724Z,1.47
2023-01-29T21:47:49.554Z,1.28
2023-01-29T21:50:19.951Z,-0.90
2023-01-29T21:52:58.312Z,-0.82
2023-01-29T21:55:27.956Z,-1.04
2023-01-29T21:57:57.935Z,-1.14
2023-01-29T22:00:32.060Z,-1.32
2023-01-29T22:03:01.571Z,0.52
2023-01-29T22:05:31.400Z,1.08
2023-01-29T22:08:02.911Z,1.41
2023-01-29T22:10:36.939Z,1.13
2023-01-29T22:13:10.932Z,1.11
